Birdseye, Utah
Current Conditions -  °F | °C
As of 4:52 PM on Friday 21 Nov 2014 (Local Time) from KPVU Reporting Station
Few Clouds Few Clouds  
Wind Chill: 40°   Ceiling: Unl
Heat Index: 43°   Visibility: 15mi
Dew Point: 18°   Wind: 5mph
Humidity: 36%   Direction: NA
Pressure: 29.99"   Gusts: NA
Location:  39.7497°N, 111.442°W
Report Text: KPVU 212352Z VRB04KT 15SM FEW100 06/M08 A2999
Loading
Personal Weather Stations






























Interactive Weather Map New forecast layout! Learn more

10-Day Weather Forecast

Advertisements
Track Severe Weather on mobile